Time;durP1;ratioP1;P1;durP2;ratioP2;P2;SDS_P1;SDS_P2;PMS_P1;PMS_P2;Temp;Humidity;BMP_temperature;BMP_pressure;BME280_temperature;BME280_humidity;BME280_pressure;Samples;Min_cycle;Max_cycle;Signal;HPM_P1;HPM_P2
2021/08/03 00:00:07;;;;;;;4.53;4.07;;;;;;;;;;5013232;28;20896;-65
2021/08/03 00:02:33;;;;;;;4.20;3.27;;;;;;;;;;4994379;28;20483;-65
2021/08/03 00:05:00;;;;;;;4.07;2.93;;;;;;;;;;4994485;28;20456;-65
2021/08/03 00:07:30;;;;;;;4.10;2.93;;;;;;;;;;5011501;28;20954;-66
2021/08/03 00:09:56;;;;;;;3.90;2.70;;;;;;;;;;5014220;28;20400;-66
2021/08/03 00:12:23;;;;;;;4.50;2.93;;;;;;;;;;5012764;28;20448;-66
2021/08/03 00:14:50;;;;;;;3.40;2.40;;;;;;;;;;5013821;28;20418;-66
2021/08/03 00:17:18;;;;;;;3.30;2.57;;;;;;;;;;5012544;28;20461;-66
2021/08/03 00:19:45;;;;;;;5.57;2.97;;;;;;;;;;5013929;28;20494;-66
2021/08/03 00:22:11;;;;;;;5.27;3.67;;;;;;;;;;5012779;28;20448;-66
2021/08/03 00:24:37;;;;;;;4.47;3.60;;;;;;;;;;5013772;28;20978;-66
2021/08/03 00:27:04;;;;;;;5.40;3.60;;;;;;;;;;5012360;28;20423;-66
2021/08/03 00:29:30;;;;;;;4.63;3.50;;;;;;;;;;5013808;28;20406;-66
2021/08/03 00:31:57;;;;;;;4.30;2.97;;;;;;;;;;5012473;28;20423;-67
2021/08/03 00:34:23;;;;;;;5.40;3.17;;;;;;;;;;5013992;28;20967;-66
2021/08/03 00:36:49;;;;;;;5.00;3.80;;;;;;;;;;5007932;28;20455;-66
2021/08/03 00:39:15;;;;;;;4.50;3.00;;;;;;;;;;5013492;28;20411;-66
2021/08/03 00:41:43;;;;;;;5.20;3.90;;;;;;;;;;5010590;28;20420;-67
2021/08/03 00:44:09;;;;;;;4.60;3.57;;;;;;;;;;5013476;28;20850;-66
2021/08/03 00:46:35;;;;;;;5.33;3.87;;;;;;;;;;5012554;28;20434;-66
2021/08/03 00:49:01;;;;;;;5.10;3.57;;;;;;;;;;5013961;28;20407;-66
2021/08/03 00:51:27;;;;;;;4.73;3.80;;;;;;;;;;5012873;28;20470;-68
2021/08/03 00:53:53;;;;;;;4.50;3.50;;;;;;;;;;5013388;28;20426;-66
2021/08/03 00:56:19;;;;;;;5.03;3.70;;;;;;;;;;5010229;28;20459;-66
2021/08/03 00:58:46;;;;;;;4.60;4.00;;;;;;;;;;5013454;28;20928;-66
2021/08/03 01:01:12;;;;;;;5.23;3.70;;;;;;;;;;5012501;28;20808;-66
2021/08/03 01:03:38;;;;;;;4.23;3.27;;;;;;;;;;5013321;28;20488;-66
2021/08/03 01:06:13;;;;;;;5.50;3.40;;;;;;;;;;5012150;28;20451;-65
2021/08/03 01:08:45;;;;;;;4.13;3.03;;;;;;;;;;5017047;28;20384;-65
2021/08/03 01:11:14;;;;;;;6.97;4.30;;;;;;;;;;5011603;28;20421;-65
2021/08/03 01:13:43;;;;;;;9.40;5.40;;;;;;;;;;4997708;28;20421;-66
2021/08/03 01:16:19;;;;;;;7.40;4.90;;;;;;;;;;4997785;28;20432;-66
2021/08/03 01:18:56;;;;;;;7.80;4.17;;;;;;;;;;4997663;28;20392;-66
2021/08/03 01:21:40;;;;;;;5.57;4.07;;;;;;;;;;5003205;28;20419;-66
2021/08/03 01:24:12;;;;;;;5.13;3.97;;;;;;;;;;5016974;28;20397;-66
2021/08/03 01:26:54;;;;;;;4.00;3.13;;;;;;;;;;5016030;28;20423;-66
2021/08/03 01:29:22;;;;;;;6.13;3.60;;;;;;;;;;5012823;28;20445;-65
2021/08/03 01:31:50;;;;;;;3.80;2.87;;;;;;;;;;5006002;28;20434;-66
2021/08/03 01:34:18;;;;;;;4.80;3.37;;;;;;;;;;5017196;28;20457;-66
2021/08/03 01:36:54;;;;;;;4.03;2.83;;;;;;;;;;5011265;28;20421;-66
2021/08/03 01:39:23;;;;;;;4.00;3.30;;;;;;;;;;4997714;28;20811;-66
2021/08/03 01:41:51;;;;;;;3.80;3.40;;;;;;;;;;4997274;28;20421;-66
2021/08/03 01:44:17;;;;;;;5.50;3.77;;;;;;;;;;4997507;28;20486;-66
2021/08/03 01:46:44;;;;;;;6.87;4.13;;;;;;;;;;5005947;28;20423;-66
2021/08/03 01:49:13;;;;;;;4.40;4.00;;;;;;;;;;5017936;28;20410;-65
2021/08/03 01:51:40;;;;;;;6.53;3.17;;;;;;;;;;5010004;28;20784;-66
2021/08/03 01:54:06;;;;;;;4.20;3.70;;;;;;;;;;4998007;28;20444;-66
2021/08/03 01:56:32;;;;;;;4.70;3.47;;;;;;;;;;4997203;28;20447;-67
2021/08/03 01:58:59;;;;;;;4.40;3.30;;;;;;;;;;4998134;28;20420;-65
2021/08/03 02:01:27;;;;;;;4.90;3.50;;;;;;;;;;5006577;28;20408;-65
2021/08/03 02:03:54;;;;;;;5.00;3.17;;;;;;;;;;4996680;28;20421;-66
2021/08/03 02:06:23;;;;;;;5.13;3.33;;;;;;;;;;4996678;28;20460;-65
2021/08/03 02:08:49;;;;;;;11.80;3.77;;;;;;;;;;5015982;28;20422;-65
2021/08/03 02:11:15;;;;;;;6.70;4.17;;;;;;;;;;5016341;28;20396;-66
2021/08/03 02:13:41;;;;;;;8.30;3.70;;;;;;;;;;5015216;28;20562;-66
2021/08/03 02:16:09;;;;;;;7.70;3.93;;;;;;;;;;5015854;28;20408;-66
2021/08/03 02:18:35;;;;;;;6.13;4.00;;;;;;;;;;5014650;28;20431;-66
2021/08/03 02:21:01;;;;;;;5.37;3.97;;;;;;;;;;5015812;28;20410;-66
2021/08/03 02:23:27;;;;;;;4.70;4.17;;;;;;;;;;5014969;28;20534;-66
2021/08/03 02:25:53;;;;;;;5.40;3.47;;;;;;;;;;5014880;28;20471;-66
2021/08/03 02:28:19;;;;;;;8.90;4.40;;;;;;;;;;5014814;28;20430;-66
2021/08/03 02:30:47;;;;;;;5.10;3.90;;;;;;;;;;5015930;28;20492;-66
2021/08/03 02:33:16;;;;;;;5.83;4.20;;;;;;;;;;5014822;28;20482;-66
2021/08/03 02:36:03;;;;;;;5.77;4.07;;;;;;;;;;5014638;28;20924;-67
2021/08/03 02:38:30;;;;;;;4.70;3.67;;;;;;;;;;5014606;28;20920;-66
2021/08/03 02:40:56;;;;;;;7.10;4.00;;;;;;;;;;5015821;28;20419;-66
2021/08/03 02:43:25;;;;;;;4.80;4.30;;;;;;;;;;5013075;28;20446;-66
2021/08/03 02:45:52;;;;;;;3.67;3.00;;;;;;;;;;5015606;28;20992;-66
2021/08/03 02:48:20;;;;;;;4.63;3.27;;;;;;;;;;5001951;28;20440;-65
2021/08/03 02:50:46;;;;;;;6.00;4.57;;;;;;;;;;4996599;28;20468;-65
2021/08/03 02:53:19;;;;;;;6.63;4.57;;;;;;;;;;5009125;28;20447;-65
2021/08/03 02:55:51;;;;;;;5.37;4.20;;;;;;;;;;5016470;28;20515;-67
2021/08/03 02:58:20;;;;;;;11.87;4.70;;;;;;;;;;5010484;28;20423;-66
2021/08/03 03:00:47;;;;;;;5.77;4.50;;;;;;;;;;5015343;28;20896;-66
2021/08/03 03:03:16;;;;;;;7.23;4.60;;;;;;;;;;5014398;28;20506;-66
2021/08/03 03:05:43;;;;;;;6.10;4.80;;;;;;;;;;5015508;28;20459;-66
2021/08/03 03:08:12;;;;;;;5.50;4.20;;;;;;;;;;5013978;28;20450;-66
2021/08/03 03:10:42;;;;;;;6.83;5.20;;;;;;;;;;5013972;28;20830;-66
2021/08/03 03:13:13;;;;;;;5.53;4.77;;;;;;;;;;5014567;28;20927;-65
2021/08/03 03:15:40;;;;;;;6.17;4.87;;;;;;;;;;5015659;28;20408;-66
2021/08/03 03:18:07;;;;;;;7.13;4.90;;;;;;;;;;5014235;28;20438;-66
2021/08/03 03:20:34;;;;;;;7.57;5.17;;;;;;;;;;5014988;28;20747;-66
2021/08/03 03:23:00;;;;;;;12.33;5.90;;;;;;;;;;5004584;28;21008;-66
2021/08/03 03:25:27;;;;;;;9.50;5.33;;;;;;;;;;4995223;28;20452;-66
2021/08/03 03:27:54;;;;;;;6.30;5.40;;;;;;;;;;5003292;28;20516;-66
2021/08/03 03:30:20;;;;;;;5.30;4.37;;;;;;;;;;5009502;28;20920;-66
2021/08/03 03:32:47;;;;;;;4.30;3.80;;;;;;;;;;5006740;28;20526;-66
2021/08/03 03:35:16;;;;;;;5.13;4.10;;;;;;;;;;5013732;28;20408;-67
2021/08/03 03:37:43;;;;;;;5.97;4.60;;;;;;;;;;5000450;28;20467;-66
2021/08/03 03:40:10;;;;;;;6.10;4.67;;;;;;;;;;5014817;28;20458;-66
2021/08/03 03:42:36;;;;;;;6.27;4.60;;;;;;;;;;5011731;28;20530;-66
2021/08/03 03:45:04;;;;;;;5.73;4.43;;;;;;;;;;5014602;28;20474;-65
2021/08/03 03:47:36;;;;;;;5.90;4.93;;;;;;;;;;5013289;28;20808;-66
2021/08/03 03:50:37;;;;;;;7.97;4.67;;;;;;;;;;5014532;28;20400;-65
2021/08/03 03:53:08;;;;;;;5.20;4.00;;;;;;;;;;4982723;28;20449;-66
2021/08/03 03:55:34;;;;;;;5.23;4.20;;;;;;;;;;4991096;28;20558;-66
2021/08/03 03:58:01;;;;;;;14.20;4.53;;;;;;;;;;5002791;28;20466;-67
2021/08/03 04:00:29;;;;;;;5.13;4.07;;;;;;;;;;5014516;28;20557;-67
2021/08/03 04:02:55;;;;;;;7.20;4.57;;;;;;;;;;5013755;28;20441;-67
2021/08/03 04:05:22;;;;;;;5.00;4.50;;;;;;;;;;5012791;28;20455;-65
2021/08/03 04:07:51;;;;;;;4.37;3.60;;;;;;;;;;5013391;28;20423;-66
2021/08/03 04:10:18;;;;;;;7.33;4.27;;;;;;;;;;5014394;28;20767;-66
2021/08/03 04:12:45;;;;;;;5.30;4.77;;;;;;;;;;5013071;28;20841;-66
2021/08/03 04:15:11;;;;;;;6.07;4.97;;;;;;;;;;5014306;28;20595;-67
2021/08/03 04:17:37;;;;;;;7.50;4.50;;;;;;;;;;4997097;28;20429;-67
2021/08/03 04:20:03;;;;;;;8.10;5.80;;;;;;;;;;5009319;28;20443;-66
2021/08/03 04:22:29;;;;;;;5.60;4.43;;;;;;;;;;5011742;28;20478;-67
2021/08/03 04:24:55;;;;;;;6.33;4.60;;;;;;;;;;5013516;28;20444;-66
2021/08/03 04:27:21;;;;;;;5.60;4.40;;;;;;;;;;5012957;28;20423;-68
2021/08/03 04:29:47;;;;;;;5.03;4.00;;;;;;;;;;5014101;28;20806;-66
2021/08/03 04:32:13;;;;;;;8.83;4.10;;;;;;;;;;5010723;28;20590;-67
2021/08/03 04:34:39;;;;;;;6.73;4.97;;;;;;;;;;5013914;28;20758;-66
2021/08/03 04:37:07;;;;;;;7.43;5.07;;;;;;;;;;5013610;28;20399;-67
2021/08/03 04:39:33;;;;;;;7.57;5.20;;;;;;;;;;4994291;28;20434;-66
2021/08/03 04:41:59;;;;;;;6.37;4.60;;;;;;;;;;4993609;28;20829;-66
2021/08/03 04:44:26;;;;;;;9.20;4.30;;;;;;;;;;5009750;28;20554;-66
2021/08/03 04:46:52;;;;;;;7.10;3.90;;;;;;;;;;5013472;28;20407;-66
2021/08/03 04:49:18;;;;;;;5.73;4.40;;;;;;;;;;5011519;28;20415;-66
2021/08/03 04:51:44;;;;;;;5.20;3.80;;;;;;;;;;5013381;28;20406;-67
2021/08/03 04:54:10;;;;;;;8.10;5.73;;;;;;;;;;4997816;28;20421;-65
2021/08/03 04:56:36;;;;;;;6.67;4.30;;;;;;;;;;4993778;28;20475;-65
2021/08/03 04:59:02;;;;;;;8.27;4.63;;;;;;;;;;4993734;28;20471;-65
2021/08/03 05:01:28;;;;;;;6.20;5.10;;;;;;;;;;4993808;28;20405;-65
2021/08/03 05:03:54;;;;;;;6.20;4.17;;;;;;;;;;5006208;28;20486;-66
2021/08/03 05:06:20;;;;;;;7.33;4.90;;;;;;;;;;5013345;28;20539;-67
2021/08/03 05:08:46;;;;;;;5.20;4.27;;;;;;;;;;5012298;28;20518;-65
2021/08/03 05:11:12;;;;;;;7.70;5.40;;;;;;;;;;5013955;28;20490;-65
2021/08/03 05:13:38;;;;;;;5.50;4.80;;;;;;;;;;5012179;28;21024;-66
2021/08/03 05:16:04;;;;;;;7.87;4.57;;;;;;;;;;5013499;28;20415;-66
2021/08/03 05:18:30;;;;;;;9.80;5.40;;;;;;;;;;5011504;28;20534;-65
2021/08/03 05:20:56;;;;;;;10.27;4.93;;;;;;;;;;5011378;28;20845;-65
2021/08/03 05:23:22;;;;;;;7.93;5.27;;;;;;;;;;5011310;28;20452;-65
2021/08/03 05:25:48;;;;;;;8.73;4.10;;;;;;;;;;5013134;28;20782;-65
2021/08/03 05:28:14;;;;;;;5.50;4.40;;;;;;;;;;5011474;28;20828;-66
2021/08/03 05:30:40;;;;;;;6.73;4.60;;;;;;;;;;5013199;28;20430;-65
2021/08/03 05:33:06;;;;;;;6.80;4.80;;;;;;;;;;5012199;28;20424;-66
2021/08/03 05:35:32;;;;;;;7.50;4.57;;;;;;;;;;5011806;28;20416;-65
2021/08/03 05:37:59;;;;;;;8.20;4.60;;;;;;;;;;5013066;28;20773;-65
2021/08/03 05:40:25;;;;;;;5.23;3.70;;;;;;;;;;5012253;28;20438;-66
2021/08/03 05:42:51;;;;;;;4.40;3.83;;;;;;;;;;5013324;28;20825;-66
2021/08/03 05:45:17;;;;;;;7.77;4.50;;;;;;;;;;5012115;28;20455;-66
2021/08/03 05:47:43;;;;;;;5.20;3.83;;;;;;;;;;5012936;28;20441;-66
2021/08/03 05:50:09;;;;;;;6.93;3.80;;;;;;;;;;4995964;28;20429;-66
2021/08/03 05:52:35;;;;;;;5.50;4.27;;;;;;;;;;4993344;28;20417;-66
2021/08/03 05:55:01;;;;;;;5.60;4.30;;;;;;;;;;5009961;28;20432;-66
2021/08/03 05:57:30;;;;;;;5.90;3.93;;;;;;;;;;5016748;28;20407;-66
2021/08/03 05:59:56;;;;;;;6.53;3.90;;;;;;;;;;5015178;28;20782;-66
2021/08/03 06:02:22;;;;;;;4.77;4.03;;;;;;;;;;5015006;28;20494;-67
2021/08/03 06:04:48;;;;;;;3.87;2.80;;;;;;;;;;5014964;28;20451;-66
2021/08/03 06:07:15;;;;;;;9.67;3.20;;;;;;;;;;5016440;28;20403;-66
2021/08/03 06:09:42;;;;;;;4.60;3.30;;;;;;;;;;5015193;28;20480;-66
2021/08/03 06:12:10;;;;;;;4.00;2.90;;;;;;;;;;5016251;28;20822;-66
2021/08/03 06:14:44;;;;;;;4.80;3.13;;;;;;;;;;5014840;28;20474;-66
2021/08/03 06:17:12;;;;;;;4.20;3.80;;;;;;;;;;5015947;28;20407;-66
2021/08/03 06:19:48;;;;;;;5.53;3.80;;;;;;;;;;5004297;28;20480;-66
2021/08/03 06:22:15;;;;;;;4.63;3.10;;;;;;;;;;4996271;28;20936;-66
2021/08/03 06:24:42;;;;;;;4.40;2.47;;;;;;;;;;4996465;28;20894;-66
2021/08/03 06:27:09;;;;;;;7.40;3.60;;;;;;;;;;4996556;28;20466;-66
2021/08/03 06:29:37;;;;;;;4.87;3.43;;;;;;;;;;4996123;28;20439;-68
2021/08/03 06:32:03;;;;;;;3.77;3.30;;;;;;;;;;4996295;28;20428;-67
2021/08/03 06:34:29;;;;;;;6.33;3.07;;;;;;;;;;5000475;28;20518;-66
2021/08/03 06:36:55;;;;;;;6.63;3.77;;;;;;;;;;5015467;28;20534;-66
2021/08/03 06:39:22;;;;;;;4.77;2.97;;;;;;;;;;5006797;28;20882;-67
2021/08/03 06:41:49;;;;;;;4.70;2.90;;;;;;;;;;4995783;28;20423;-67
2021/08/03 06:44:22;;;;;;;4.30;2.80;;;;;;;;;;5000661;28;20432;-67
2021/08/03 06:46:50;;;;;;;3.90;2.80;;;;;;;;;;5015396;28;20399;-66
2021/08/03 06:49:18;;;;;;;4.43;3.07;;;;;;;;;;5007750;28;20507;-66
2021/08/03 06:51:44;;;;;;;3.47;2.60;;;;;;;;;;4995551;28;20426;-67
2021/08/03 06:54:11;;;;;;;5.27;3.30;;;;;;;;;;5018174;28;20581;-66
2021/08/03 06:56:45;;;;;;;4.80;3.13;;;;;;;;;;5015022;28;20442;-66
2021/08/03 06:59:11;;;;;;;6.03;3.60;;;;;;;;;;5011047;28;20955;-67
2021/08/03 07:01:48;;;;;;;4.30;3.13;;;;;;;;;;5014978;28;20439;-66
2021/08/03 07:04:19;;;;;;;4.57;2.80;;;;;;;;;;5008394;28;20419;-68
2021/08/03 07:06:52;;;;;;;5.70;2.77;;;;;;;;;;5011728;28;20401;-66
2021/08/03 07:09:18;;;;;;;3.90;2.90;;;;;;;;;;5006046;28;20408;-64
2021/08/03 07:11:44;;;;;;;4.17;2.67;;;;;;;;;;5010555;28;20930;-65
2021/08/03 07:14:11;;;;;;;5.07;2.93;;;;;;;;;;5012099;28;20450;-67
2021/08/03 07:16:39;;;;;;;6.43;2.90;;;;;;;;;;5012117;28;20499;-66
2021/08/03 07:19:05;;;;;;;4.80;3.20;;;;;;;;;;5011968;28;20431;-66
2021/08/03 07:21:32;;;;;;;4.77;3.03;;;;;;;;;;5013977;28;20424;-66
2021/08/03 07:23:58;;;;;;;5.07;2.97;;;;;;;;;;5011158;28;20444;-68
2021/08/03 07:26:24;;;;;;;6.40;3.07;;;;;;;;;;5002573;28;20503;-66
2021/08/03 07:28:51;;;;;;;5.87;2.60;;;;;;;;;;5009918;28;20499;-66
2021/08/03 07:31:17;;;;;;;3.60;1.97;;;;;;;;;;4998883;28;20459;-66
2021/08/03 07:33:43;;;;;;;6.07;2.67;;;;;;;;;;5013400;28;20435;-66
2021/08/03 07:36:09;;;;;;;3.67;2.30;;;;;;;;;;5010532;28;20522;-67
2021/08/03 07:38:36;;;;;;;3.20;2.33;;;;;;;;;;5013044;28;20420;-66
2021/08/03 07:41:02;;;;;;;4.60;2.80;;;;;;;;;;5011723;28;20452;-66
2021/08/03 07:43:28;;;;;;;6.93;2.30;;;;;;;;;;5009962;28;20860;-68
2021/08/03 07:45:54;;;;;;;5.80;2.20;;;;;;;;;;5011247;28;20451;-65
2021/08/03 07:48:20;;;;;;;5.70;2.27;;;;;;;;;;5012496;28;20418;-65
2021/08/03 07:50:46;;;;;;;2.30;1.70;;;;;;;;;;5011662;28;20502;-67
2021/08/03 07:53:13;;;;;;;6.33;2.10;;;;;;;;;;5005196;28;22129;-67
2021/08/03 07:55:39;;;;;;;2.57;1.93;;;;;;;;;;5006351;28;20928;-65
2021/08/03 07:58:05;;;;;;;4.00;1.90;;;;;;;;;;5010986;28;20976;-66
2021/08/03 08:00:32;;;;;;;2.83;2.00;;;;;;;;;;5005905;28;21855;-71
2021/08/03 08:02:58;;;;;;;3.67;2.17;;;;;;;;;;5008213;28;20439;-71
2021/08/03 08:05:25;;;;;;;3.77;2.40;;;;;;;;;;5009923;28;20575;-70
2021/08/03 08:07:56;;;;;;;4.30;2.17;;;;;;;;;;5012128;28;20458;-71
2021/08/03 08:10:23;;;;;;;4.10;2.10;;;;;;;;;;5013281;28;20421;-69
2021/08/03 08:12:49;;;;;;;4.73;2.60;;;;;;;;;;5006864;28;20805;-72
2021/08/03 08:15:15;;;;;;;3.67;2.10;;;;;;;;;;5003763;28;20500;-68
2021/08/03 08:17:41;;;;;;;3.37;2.00;;;;;;;;;;5014780;28;20931;-68
2021/08/03 08:20:13;;;;;;;2.73;1.90;;;;;;;;;;5009970;28;20490;-68
2021/08/03 08:22:42;;;;;;;3.70;2.00;;;;;;;;;;5011702;28;20455;-69
2021/08/03 08:25:10;;;;;;;2.40;1.67;;;;;;;;;;5009185;28;20904;-69
2021/08/03 08:27:40;;;;;;;2.57;1.77;;;;;;;;;;5005715;28;20431;-70
2021/08/03 08:30:06;;;;;;;3.20;1.97;;;;;;;;;;5008149;28;20761;-69
2021/08/03 08:32:33;;;;;;;3.43;2.40;;;;;;;;;;5010188;28;20789;-69
2021/08/03 08:34:59;;;;;;;2.20;1.67;;;;;;;;;;5002627;28;20844;-67
2021/08/03 08:37:25;;;;;;;4.73;1.70;;;;;;;;;;5010613;28;20422;-66
2021/08/03 08:39:51;;;;;;;3.67;1.83;;;;;;;;;;5012355;28;20431;-64
2021/08/03 08:42:20;;;;;;;3.50;1.80;;;;;;;;;;5010885;28;20859;-65
2021/08/03 08:44:49;;;;;;;2.47;1.60;;;;;;;;;;5009404;28;20458;-69
2021/08/03 08:47:18;;;;;;;6.60;1.87;;;;;;;;;;5010636;28;20955;-72
2021/08/03 08:49:45;;;;;;;2.70;1.60;;;;;;;;;;5011772;28;20947;-69
2021/08/03 08:52:13;;;;;;;3.50;1.60;;;;;;;;;;5009288;28;20466;-70
2021/08/03 08:54:39;;;;;;;3.00;1.83;;;;;;;;;;5006104;28;20971;-68
2021/08/03 08:57:05;;;;;;;2.60;2.00;;;;;;;;;;5005637;28;20435;-68
2021/08/03 08:59:31;;;;;;;2.50;1.60;;;;;;;;;;5017867;28;20412;-67
2021/08/03 09:01:57;;;;;;;2.50;1.73;;;;;;;;;;5008634;28;20521;-67
2021/08/03 09:04:24;;;;;;;2.43;1.53;;;;;;;;;;5016298;28;20465;-67
2021/08/03 09:07:19;;;;;;;3.07;1.53;;;;;;;;;;5015247;28;20474;-68
2021/08/03 09:09:46;;;;;;;2.87;1.80;;;;;;;;;;5005535;28;20432;-67
2021/08/03 09:12:13;;;;;;;2.47;1.50;;;;;;;;;;5006380;28;20457;-72
2021/08/03 09:14:40;;;;;;;2.90;1.67;;;;;;;;;;5000427;28;20430;-67
2021/08/03 09:17:06;;;;;;;4.67;1.87;;;;;;;;;;5010600;28;20540;-67
2021/08/03 09:19:35;;;;;;;2.73;1.47;;;;;;;;;;5007867;28;20422;-69
2021/08/03 09:22:14;;;;;;;4.83;2.00;;;;;;;;;;5007254;28;20873;-71
2021/08/03 09:24:40;;;;;;;5.17;1.90;;;;;;;;;;5012439;28;20987;-70
2021/08/03 09:27:06;;;;;;;5.70;1.80;;;;;;;;;;5015327;28;20416;-68
2021/08/03 09:29:43;;;;;;;2.57;1.57;;;;;;;;;;5023124;28;20771;-68
2021/08/03 09:32:09;;;;;;;3.20;1.70;;;;;;;;;;5015690;28;20490;-69
2021/08/03 09:34:35;;;;;;;4.60;2.57;;;;;;;;;;5018315;28;20860;-68
2021/08/03 09:37:02;;;;;;;3.60;1.73;;;;;;;;;;5020854;28;20442;-68
2021/08/03 09:39:34;;;;;;;2.13;1.57;;;;;;;;;;5015613;28;20504;-69
2021/08/03 09:42:00;;;;;;;4.60;1.87;;;;;;;;;;5003657;28;20423;-66
2021/08/03 09:44:26;;;;;;;3.53;1.90;;;;;;;;;;5015934;28;20411;-67
2021/08/03 09:46:59;;;;;;;3.30;1.90;;;;;;;;;;5014244;28;20415;-66
2021/08/03 09:49:38;;;;;;;3.73;1.67;;;;;;;;;;5023698;28;20411;-67
2021/08/03 09:52:08;;;;;;;2.83;2.30;;;;;;;;;;5016226;28;20446;-67
2021/08/03 09:54:35;;;;;;;2.73;1.43;;;;;;;;;;5016653;28;20469;-69
2021/08/03 09:57:02;;;;;;;2.67;1.57;;;;;;;;;;5019721;28;20922;-70
2021/08/03 09:59:35;;;;;;;2.43;1.50;;;;;;;;;;5013317;28;20418;-68
2021/08/03 10:02:01;;;;;;;2.73;1.70;;;;;;;;;;5011425;28;20468;-69
2021/08/03 10:04:28;;;;;;;3.40;1.70;;;;;;;;;;5011517;28;20417;-69
2021/08/03 10:06:55;;;;;;;2.30;1.57;;;;;;;;;;5012680;28;20411;-68
2021/08/03 10:09:22;;;;;;;3.33;1.83;;;;;;;;;;4991401;28;20419;-68
2021/08/03 10:11:48;;;;;;;2.77;1.60;;;;;;;;;;5010942;28;20443;-68
2021/08/03 10:14:15;;;;;;;4.37;1.70;;;;;;;;;;5015014;28;20779;-68
2021/08/03 10:16:41;;;;;;;3.13;1.67;;;;;;;;;;5016605;28;20491;-67
2021/08/03 10:19:07;;;;;;;2.10;1.40;;;;;;;;;;5015696;28;20470;-70
2021/08/03 10:21:36;;;;;;;2.57;1.57;;;;;;;;;;5011628;28;20935;-65
2021/08/03 10:24:22;;;;;;;2.03;1.40;;;;;;;;;;5017446;28;20510;-69
2021/08/03 10:27:03;;;;;;;4.17;1.80;;;;;;;;;;5012701;28;20431;-69
2021/08/03 10:29:29;;;;;;;3.20;1.80;;;;;;;;;;5008760;28;20439;-69
2021/08/03 10:31:56;;;;;;;2.13;1.73;;;;;;;;;;5013143;28;20430;-69
2021/08/03 10:34:40;;;;;;;5.43;1.73;;;;;;;;;;5013319;28;20470;-69
2021/08/03 10:37:06;;;;;;;3.27;2.00;;;;;;;;;;5006471;28;20436;-69
2021/08/03 10:40:11;;;;;;;2.50;1.80;;;;;;;;;;5012632;28;20418;-69
2021/08/03 10:42:37;;;;;;;3.10;1.80;;;;;;;;;;4959473;28;20449;-69
2021/08/03 10:45:16;;;;;;;3.40;2.27;;;;;;;;;;4952339;29;20465;-69
2021/08/03 10:47:43;;;;;;;2.17;1.60;;;;;;;;;;4975002;28;20422;-69
2021/08/03 10:50:35;;;;;;;5.40;1.63;;;;;;;;;;5012542;28;20424;-69
2021/08/03 10:53:03;;;;;;;2.77;1.80;;;;;;;;;;5011731;28;20443;-69
2021/08/03 10:55:32;;;;;;;3.27;1.90;;;;;;;;;;5010595;28;20451;-69
2021/08/03 10:58:25;;;;;;;3.07;1.70;;;;;;;;;;5009247;28;20502;-69
2021/08/03 11:00:54;;;;;;;3.37;1.70;;;;;;;;;;5007994;28;20434;-69
2021/08/03 11:03:46;;;;;;;2.83;1.80;;;;;;;;;;5013273;28;20484;-69
2021/08/03 11:06:31;;;;;;;2.53;1.63;;;;;;;;;;5009463;28;20523;-69
2021/08/03 11:08:57;;;;;;;2.17;1.60;;;;;;;;;;5010595;28;20841;-69
2021/08/03 11:11:24;;;;;;;9.03;1.83;;;;;;;;;;5005345;28;20427;-69
2021/08/03 11:13:51;;;;;;;2.20;1.57;;;;;;;;;;5005010;28;20459;-69
2021/08/03 11:16:23;;;;;;;2.50;1.53;;;;;;;;;;5013572;28;20772;-69
2021/08/03 11:18:51;;;;;;;2.60;1.80;;;;;;;;;;5002629;28;20505;-69
2021/08/03 11:21:18;;;;;;;3.03;2.00;;;;;;;;;;5008467;28;20446;-69
2021/08/03 11:23:56;;;;;;;2.90;1.80;;;;;;;;;;5011460;28;20804;-69
2021/08/03 11:26:23;;;;;;;7.83;2.33;;;;;;;;;;5007943;28;20454;-69
2021/08/03 11:29:00;;;;;;;3.97;1.77;;;;;;;;;;5013142;28;20407;-68
2021/08/03 11:31:44;;;;;;;4.77;2.23;;;;;;;;;;4998571;28;20908;-70
2021/08/03 11:34:12;;;;;;;2.90;1.83;;;;;;;;;;5010695;28;20511;-70
2021/08/03 11:36:38;;;;;;;3.53;2.20;;;;;;;;;;5010500;28;20435;-72
2021/08/03 11:39:20;;;;;;;3.40;1.77;;;;;;;;;;5011963;28;20431;-70
2021/08/03 11:41:47;;;;;;;3.70;2.07;;;;;;;;;;5011322;28;20427;-70
2021/08/03 11:44:14;;;;;;;3.53;2.03;;;;;;;;;;5012174;28;20430;-70
2021/08/03 11:46:40;;;;;;;2.60;2.00;;;;;;;;;;4999728;28;20456;-69
2021/08/03 11:49:07;;;;;;;3.30;2.30;;;;;;;;;;5005634;28;20439;-68
2021/08/03 11:51:47;;;;;;;2.80;2.03;;;;;;;;;;5009577;28;20450;-69
2021/08/03 11:54:18;;;;;;;3.10;1.77;;;;;;;;;;5009249;28;20489;-69
2021/08/03 11:56:44;;;;;;;3.07;2.20;;;;;;;;;;5010597;28;20574;-70
2021/08/03 11:59:13;;;;;;;7.10;2.00;;;;;;;;;;5012864;28;20967;-70
2021/08/03 12:01:46;;;;;;;4.23;1.70;;;;;;;;;;5011548;28;20477;-70
2021/08/03 12:04:16;;;;;;;3.00;1.90;;;;;;;;;;5006825;28;20419;-70
2021/08/03 12:06:43;;;;;;;2.73;1.80;;;;;;;;;;5007299;28;20454;-70
2021/08/03 12:09:10;;;;;;;3.10;1.67;;;;;;;;;;5012447;28;20454;-69
2021/08/03 12:11:36;;;;;;;2.97;1.87;;;;;;;;;;5012393;28;21075;-69
2021/08/03 12:14:12;;;;;;;2.70;1.87;;;;;;;;;;5012147;28;20435;-71
2021/08/03 12:16:42;;;;;;;2.70;2.00;;;;;;;;;;5006999;28;20513;-70
2021/08/03 12:19:26;;;;;;;2.90;1.83;;;;;;;;;;5012998;28;20412;-69
2021/08/03 12:21:52;;;;;;;2.47;1.53;;;;;;;;;;5010505;28;20990;-72
2021/08/03 12:24:18;;;;;;;3.33;1.90;;;;;;;;;;5011339;28;20423;-69
2021/08/03 12:26:45;;;;;;;3.20;2.10;;;;;;;;;;5003674;28;20587;-70
2021/08/03 12:29:11;;;;;;;3.40;2.17;;;;;;;;;;5005718;28;20439;-71
2021/08/03 12:31:37;;;;;;;2.60;1.90;;;;;;;;;;5010540;28;20419;-69
2021/08/03 12:34:06;;;;;;;2.97;1.70;;;;;;;;;;5011162;28;20875;-70
2021/08/03 12:36:49;;;;;;;4.90;2.03;;;;;;;;;;5011491;28;20434;-69
2021/08/03 12:39:21;;;;;;;2.30;1.70;;;;;;;;;;5008461;28;20427;-69
2021/08/03 12:42:02;;;;;;;3.90;3.00;;;;;;;;;;5006686;28;20581;-69
2021/08/03 12:44:29;;;;;;;2.80;1.57;;;;;;;;;;5011086;28;20432;-68
2021/08/03 12:46:56;;;;;;;9.40;1.70;;;;;;;;;;5008979;28;20431;-70
2021/08/03 12:49:32;;;;;;;2.43;1.67;;;;;;;;;;5010953;28;20912;-70
2021/08/03 12:52:23;;;;;;;4.17;1.80;;;;;;;;;;5010670;28;20968;-70
2021/08/03 12:55:00;;;;;;;3.80;1.73;;;;;;;;;;5008039;28;20872;-70
2021/08/03 12:58:04;;;;;;;2.80;1.73;;;;;;;;;;5008952;28;20449;-69
2021/08/03 13:00:40;;;;;;;3.30;1.50;;;;;;;;;;4970047;28;20440;-71
2021/08/03 13:03:11;;;;;;;5.73;2.00;;;;;;;;;;4964574;28;20453;-70
2021/08/03 13:05:37;;;;;;;2.93;1.53;;;;;;;;;;4988449;28;20464;-69
2021/08/03 13:08:03;;;;;;;2.33;1.80;;;;;;;;;;5014138;28;20434;-71
2021/08/03 13:10:30;;;;;;;2.33;1.77;;;;;;;;;;5018736;28;20475;-69
2021/08/03 13:12:56;;;;;;;2.50;1.50;;;;;;;;;;5016065;28;20453;-72
2021/08/03 13:15:22;;;;;;;2.47;1.50;;;;;;;;;;5017315;28;20636;-69
2021/08/03 13:17:48;;;;;;;3.13;1.80;;;;;;;;;;5012941;28;20449;-70
2021/08/03 13:20:15;;;;;;;2.67;1.50;;;;;;;;;;5012556;28;20941;-70
2021/08/03 13:22:41;;;;;;;2.13;1.27;;;;;;;;;;5015031;28;20458;-70
2021/08/03 13:25:07;;;;;;;3.73;1.40;;;;;;;;;;5013322;28;20468;-70
2021/08/03 13:27:33;;;;;;;3.17;1.90;;;;;;;;;;5013166;28;20932;-70
2021/08/03 13:29:59;;;;;;;2.83;1.80;;;;;;;;;;5011273;28;20419;-70
2021/08/03 13:32:25;;;;;;;3.27;1.60;;;;;;;;;;5012080;28;20537;-70
2021/08/03 13:34:52;;;;;;;2.17;1.60;;;;;;;;;;5013119;28;20442;-70
2021/08/03 13:37:21;;;;;;;4.77;1.70;;;;;;;;;;5012767;28;20928;-70
2021/08/03 13:39:47;;;;;;;3.13;1.87;;;;;;;;;;5017965;28;20485;-70
2021/08/03 13:42:13;;;;;;;6.43;2.40;;;;;;;;;;5013773;28;20455;-71
2021/08/03 13:44:39;;;;;;;2.47;1.77;;;;;;;;;;5015309;28;20446;-68
2021/08/03 13:47:05;;;;;;;4.43;1.57;;;;;;;;;;5014690;28;20428;-71
2021/08/03 13:49:32;;;;;;;2.83;1.50;;;;;;;;;;5005536;28;20479;-70
2021/08/03 13:51:58;;;;;;;3.20;1.60;;;;;;;;;;5014335;28;20423;-70
2021/08/03 13:54:24;;;;;;;2.80;1.50;;;;;;;;;;5015689;28;20823;-70
2021/08/03 13:56:50;;;;;;;2.60;1.60;;;;;;;;;;5012288;28;20453;-70
2021/08/03 13:59:17;;;;;;;2.63;1.60;;;;;;;;;;5015628;28;20480;-70
2021/08/03 14:01:43;;;;;;;2.10;1.33;;;;;;;;;;5012288;28;20435;-70
2021/08/03 14:04:09;;;;;;;6.50;1.80;;;;;;;;;;5011123;28;20493;-70
2021/08/03 14:06:35;;;;;;;3.13;1.90;;;;;;;;;;5013201;28;20458;-69
2021/08/03 14:09:01;;;;;;;2.60;1.50;;;;;;;;;;5013873;28;20420;-70
2021/08/03 14:11:27;;;;;;;2.47;1.67;;;;;;;;;;5013492;28;20434;-70
2021/08/03 14:13:53;;;;;;;3.20;1.80;;;;;;;;;;5011825;28;20817;-70
2021/08/03 14:16:19;;;;;;;2.37;1.57;;;;;;;;;;5011971;28;20524;-70
2021/08/03 14:18:45;;;;;;;3.53;1.30;;;;;;;;;;5012022;28;20427;-70
2021/08/03 14:21:11;;;;;;;3.37;1.60;;;;;;;;;;5008910;28;21777;-70
2021/08/03 14:23:37;;;;;;;2.30;1.57;;;;;;;;;;5013744;28;20458;-70
2021/08/03 14:26:04;;;;;;;3.30;1.73;;;;;;;;;;5009804;28;20467;-72
2021/08/03 14:28:30;;;;;;;2.93;1.77;;;;;;;;;;5004734;28;20427;-69
2021/08/03 14:30:56;;;;;;;3.83;1.80;;;;;;;;;;5013613;28;20738;-70
2021/08/03 14:33:22;;;;;;;3.80;1.57;;;;;;;;;;5013178;28;20454;-70
2021/08/03 14:35:49;;;;;;;2.67;1.70;;;;;;;;;;5015265;28;20395;-69
2021/08/03 14:38:15;;;;;;;2.63;1.57;;;;;;;;;;5010992;28;20455;-70
2021/08/03 14:40:41;;;;;;;2.20;1.30;;;;;;;;;;5008417;28;20466;-72
2021/08/03 14:43:07;;;;;;;4.40;1.83;;;;;;;;;;5012855;28;20451;-70
2021/08/03 14:45:33;;;;;;;3.80;1.83;;;;;;;;;;4995474;28;20460;-70
2021/08/03 14:47:59;;;;;;;2.10;1.50;;;;;;;;;;5008769;28;20435;-69
2021/08/03 14:50:25;;;;;;;1.70;1.17;;;;;;;;;;5013523;28;20819;-70